Takaya — VG2773 — position and weather

sailwx.info

Track history (hours):
 
Tides and Currents Weather Stations Pressure Air Temp Water Temp Dewpoint Dewpoint Depression Visibility Wind Speed Wind Dir Waves Ship Positions

Takaya

Last reported at 2014-Oct-31 12:33 UTC. Time now 2014-Oct-31 13:01 UTC.
Position N 49°17' W 123°06'.

; draft 1.4 m.

Type: Port tender. MMSI: 316014014.

Date/timePositionNaut miles runAvg speedWind from/ knotsBaromVisibWave heightAir tempDewpointWater temp
2014-Oct-31 12:33N 49°17' W 123°06'0 0.0
2014-Oct-31 11:29N 49°17' W 123°06'0 0.0
2014-Oct-31 10:33N 49°17' W 123°06'0 0.0
2014-Oct-31 09:33N 49°17' W 123°06'0 0.0
2014-Oct-31 08:33N 49°17' W 123°06'0 0.0
2014-Oct-31 07:32N 49°17' W 123°06'0 0.0
2014-Oct-31 06:31N 49°17' W 123°06'0 0.0
2014-Oct-31 05:33N 49°17' W 123°06'0 0.0
2014-Oct-31 04:23N 49°17' W 123°06'0 0.0
2014-Oct-31 03:29N 49°17' W 123°06'0 0.0
2014-Oct-31 02:33N 49°17' W 123°06'0 0.0
2014-Oct-31 01:32N 49°17' W 123°06'0 0.0
2014-Oct-31 00:33N 49°17' W 123°06'0 0.0
2014-Oct-30 23:32N 49°17' W 123°06'0 0.0
2014-Oct-30 22:32N 49°17' W 123°06'0 0.0
2014-Oct-30 21:33N 49°17' W 123°06'0 0.0
2014-Oct-30 20:33N 49°17' W 123°06'0 0.0
2014-Oct-30 19:23N 49°17' W 123°06'0 0.0
2014-Oct-30 18:33N 49°17' W 123°06'0 0.0
2014-Oct-30 17:33N 49°17' W 123°06'0 0.0
2014-Oct-30 16:33N 49°17' W 123°06'0 0.0
2014-Oct-30 15:29N 49°17' W 123°06'0 0.0
2014-Oct-30 14:28N 49°17' W 123°06'0 0.0
2014-Oct-30 13:33N 49°17' W 123°06'0 0.0
2014-Oct-30 12:33N 49°17' W 123°06'0 0.0
2014-Oct-30 11:27N 49°17' W 123°06'0 0.0
2014-Oct-30 10:32N 49°17' W 123°06'0 0.0
2014-Oct-30 09:33N 49°17' W 123°06'0 0.0
2014-Oct-30 08:33N 49°17' W 123°06'0 0.0
2014-Oct-30 07:33N 49°17' W 123°06'0 0.0
2014-Oct-30 06:30N 49°17' W 123°06'0 0.0
2014-Oct-30 05:33N 49°17' W 123°06'0 0.0
2014-Oct-30 04:27N 49°17' W 123°06'0 0.0
2014-Oct-30 03:33N 49°17' W 123°06'0 0.0
2014-Oct-30 02:33N 49°17' W 123°06'0 0.0
2014-Oct-30 01:33N 49°17' W 123°06'0 0.0
2014-Oct-30 00:33N 49°17' W 123°06'1 1.0
2014-Oct-29 23:33N 49°18' W 123°06'1 1.0
2014-Oct-29 22:33N 49°17' W 123°07'4 4.1
2014-Oct-29 21:33N 49°18' W 123°00'4 4.1
2014-Oct-29 20:33N 49°17' W 123°07'0 0.0
2014-Oct-29 19:34N 49°17' W 123°07'0 0.4
2014-Oct-29 18:33N 49°17' W 123°06'0 0.0
2014-Oct-29 17:34N 49°17' W 123°06'0 0.0
2014-Oct-29 16:33N 49°17' W 123°06'0 0.0
2014-Oct-29 15:33N 49°17' W 123°06'0 0.0
2014-Oct-29 14:31N 49°17' W 123°06'0 0.0
2014-Oct-29 13:34N 49°17' W 123°06'0 0.0
2014-Oct-29 12:33N 49°17' W 123°06'0 0.0
2014-Oct-29 11:32N 49°17' W 123°06'0 0.0
2014-Oct-29 10:34N 49°17' W 123°06'0 0.0
2014-Oct-29 09:34N 49°17' W 123°06'0 0.0
2014-Oct-29 08:33N 49°17' W 123°06'0 0.0
2014-Oct-29 07:33N 49°17' W 123°06'0 0.0
2014-Oct-29 06:34N 49°17' W 123°06'0 0.0
2014-Oct-29 05:33N 49°17' W 123°06'0 0.0
2014-Oct-29 04:33N 49°17' W 123°06'0 0.0
2014-Oct-29 03:33N 49°17' W 123°06'0 0.0
2014-Oct-29 02:34N 49°17' W 123°06'0 0.0
2014-Oct-29 01:33N 49°17' W 123°06'0 0.0
2014-Oct-29 00:34N 49°17' W 123°06'2 2.3
2014-Oct-28 23:34N 49°19' W 123°08'2 2.3
2014-Oct-28 22:33N 49°17' W 123°06'3 2.9
2014-Oct-28 21:33N 49°18' W 123°02'3 3.0
2014-Oct-28 20:33N 49°17' W 123°06'0 0.1
2014-Oct-28 19:33N 49°17' W 123°06'0 0.0
2014-Oct-28 18:32N 49°17' W 123°06'0 0.0
2014-Oct-28 17:33N 49°17' W 123°06'0 0.0
2014-Oct-28 16:33N 49°17' W 123°06'0 0.0
2014-Oct-28 15:29N 49°17' W 123°06'0 0.0
2014-Oct-28 14:31N 49°17' W 123°06'0 0.0
2014-Oct-28 13:34N 49°17' W 123°06'0 0.0
2014-Oct-28 12:33N 49°17' W 123°06'0 0.0
2014-Oct-28 11:33N 49°17' W 123°06'0 0.0
2014-Oct-28 10:33N 49°17' W 123°06'0 0.0
2014-Oct-28 09:33N 49°17' W 123°06'0 0.0
2014-Oct-28 08:33N 49°17' W 123°06'0 0.0
2014-Oct-28 07:31N 49°17' W 123°06'0 0.0
2014-Oct-28 06:34N 49°17' W 123°06'0 0.0
2014-Oct-28 05:34N 49°17' W 123°06'0 0.0
2014-Oct-28 04:33N 49°17' W 123°06'0 0.0
2014-Oct-28 03:29N 49°17' W 123°06'0 0.0
2014-Oct-28 02:34N 49°17' W 123°06'0 0.0
2014-Oct-28 01:33N 49°17' W 123°06'0 0.0
2014-Oct-28 00:34N 49°17' W 123°06'0 0.0
2014-Oct-27 23:33N 49°17' W 123°06'0 0.0
2014-Oct-27 22:33N 49°17' W 123°06'0 0.0
2014-Oct-27 21:33N 49°17' W 123°06'0 0.0
2014-Oct-27 20:34N 49°17' W 123°06'0 0.0
2014-Oct-27 19:27N 49°17' W 123°06'0 0.0
2014-Oct-27 18:33N 49°17' W 123°06'0 0.0
2014-Oct-27 17:34N 49°17' W 123°06'0 0.0
2014-Oct-27 16:34N 49°17' W 123°06'0 0.0
2014-Oct-27 15:33N 49°17' W 123°06'0 0.1
2014-Oct-27 14:33N 49°17' W 123°06'0 0.0
2014-Oct-27 13:33N 49°17' W 123°06'0 0.0
2014-Oct-27 12:33N 49°17' W 123°06'0 0.0
2014-Oct-27 11:33N 49°17' W 123°06'0 0.0
2014-Oct-27 10:32N 49°17' W 123°06'0 0.0
2014-Oct-27 09:34N 49°17' W 123°06'0 0.0
2014-Oct-27 08:32N 49°17' W 123°06'0 0.0
2014-Oct-27 07:33N 49°17' W 123°06'0 0.0
2014-Oct-27 06:34N 49°17' W 123°06'0 0.1
2014-Oct-27 05:33N 49°17' W 123°06'0 0.0
2014-Oct-27 04:28N 49°17' W 123°06'0 0.0
2014-Oct-27 03:33N 49°17' W 123°06'0 0.0
2014-Oct-27 02:33N 49°17' W 123°06'0 0.0
2014-Oct-27 01:32N 49°17' W 123°06'0 0.0
2014-Oct-27 00:33N 49°17' W 123°06'0 0.0
2014-Oct-26 23:33N 49°17' W 123°06'0 0.0
2014-Oct-26 22:33N 49°17' W 123°06'1 1.2
2014-Oct-26 21:33N 49°17' W 123°04'7 6.8
2014-Oct-26 20:33N 49°18' W 122°54'3 2.5
2014-Oct-26 19:33N 49°18' W 122°58'3 3.3
2014-Oct-26 18:33N 49°18' W 123°03'2 2.2
2014-Oct-26 17:33N 49°17' W 123°06'1 0.9
2014-Oct-26 16:34N 49°18' W 123°07'2 2.2
2014-Oct-26 15:33N 49°17' W 123°09'2 1.8
2014-Oct-26 14:33N 49°18' W 123°07'1 0.9
2014-Oct-26 13:33N 49°17' W 123°06'0 0.0
2014-Oct-26 12:33N 49°17' W 123°06'0 0.0
2014-Oct-26 11:33N 49°17' W 123°06'0 0.0
2014-Oct-26 10:33N 49°17' W 123°06'0 0.0
2014-Oct-26 09:33N 49°17' W 123°06'0 0.0
2014-Oct-26 08:33N 49°17' W 123°06'0 0.0
2014-Oct-26 07:33N 49°17' W 123°06'0 0.0
2014-Oct-26 06:33N 49°17' W 123°06'0 0.0
2014-Oct-26 05:33N 49°17' W 123°06'0 0.0
2014-Oct-26 04:31N 49°17' W 123°06'0 0.0
2014-Oct-26 03:33N 49°17' W 123°06'0 0.0
2014-Oct-26 02:33N 49°17' W 123°06'0 0.0
2014-Oct-26 01:33N 49°17' W 123°06'0 0.0
2014-Oct-26 00:33N 49°17' W 123°06'0 0.0
2014-Oct-25 23:33N 49°17' W 123°06'0 0.0
2014-Oct-25 22:33N 49°17' W 123°06'0 0.0
2014-Oct-25 21:33N 49°17' W 123°06'0 0.0
2014-Oct-25 20:33N 49°17' W 123°06'0 0.0
2014-Oct-25 19:12N 49°17' W 123°06'0 0.0
2014-Oct-25 18:33N 49°17' W 123°06'0 0.0
2014-Oct-25 17:33N 49°17' W 123°06'0 0.0
2014-Oct-25 16:19N 49°17' W 123°06'0 0.0
2014-Oct-25 15:32N 49°17' W 123°06'0 0.0
2014-Oct-25 14:33N 49°17' W 123°06'0 0.0
2014-Oct-25 13:33N 49°17' W 123°06'0 0.0
2014-Oct-25 12:33N 49°17' W 123°06'0 0.0
2014-Oct-25 11:32N 49°17' W 123°06'0 0.0
2014-Oct-25 10:33N 49°17' W 123°06'0 0.0
2014-Oct-25 09:33N 49°17' W 123°06'0 0.0
2014-Oct-25 08:33N 49°17' W 123°06'0 0.0
2014-Oct-25 07:32N 49°17' W 123°06'0 0.0
2014-Oct-25 06:33N 49°17' W 123°06'0 0.0
2014-Oct-25 05:33N 49°17' W 123°06'0 0.0
2014-Oct-25 04:33N 49°17' W 123°06'0 0.0
2014-Oct-25 03:33N 49°17' W 123°06'0 0.0
2014-Oct-25 02:32N 49°17' W 123°06'0 0.0
2014-Oct-25 01:33N 49°17' W 123°06'0 0.0
2014-Oct-25 00:33N 49°17' W 123°06'8 8.1
2014-Oct-24 23:34N 49°18' W 122°54'7 6.8
2014-Oct-24 22:33N 49°17' W 123°04'1 1.3
2014-Oct-24 21:33N 49°17' W 123°06'0 0.0
2014-Oct-24 20:33N 49°17' W 123°06'3 2.7
2014-Oct-24 19:33N 49°18' W 123°02'9 9.1
2014-Oct-24 18:33N 49°17' W 123°16'3 2.8
2014-Oct-24 17:33N 49°20' W 123°14'5 5.4
2014-Oct-24 16:33N 49°18' W 123°06'1 0.5
2014-Oct-24 15:33N 49°17' W 123°07'0 0.4
2014-Oct-24 14:33N 49°17' W 123°06'0 0.0
2014-Oct-24 13:25N 49°17' W 123°06'0 0.0
2014-Oct-24 12:34N 49°17' W 123°06'0 0.0
2014-Oct-24 11:33N 49°17' W 123°06'0 0.0
2014-Oct-24 10:34N 49°17' W 123°06'0 0.0
2014-Oct-24 09:33N 49°17' W 123°06'0 0.0
2014-Oct-24 08:34N 49°17' W 123°06'0 0.0
2014-Oct-24 07:32N 49°17' W 123°06'0 0.0
2014-Oct-24 06:33N 49°17' W 123°06'0 0.0
2014-Oct-24 05:33N 49°17' W 123°06'0 0.0
2014-Oct-24 04:16N 49°17' W 123°06'0 0.1
2014-Oct-24 03:34N 49°17' W 123°06'0 0.0
2014-Oct-24 02:33N 49°17' W 123°06'0 0.0
2014-Oct-24 01:33N 49°17' W 123°06'0 0.0
2014-Oct-24 00:32N 49°17' W 123°06'0 0.0
2014-Oct-23 23:34N 49°17' W 123°06'0 0.0
2014-Oct-23 22:33N 49°17' W 123°06'0 0.0
2014-Oct-23 21:33N 49°17' W 123°06'0 0.0
2014-Oct-23 20:33N 49°17' W 123°06'5 4.7
2014-Oct-23 19:33N 49°18' W 122°59'5 4.6
2014-Oct-23 18:32N 49°17' W 123°06'0 0.0
2014-Oct-23 17:34N 49°17' W 123°06'0 0.0
2014-Oct-23 15:33N 49°17' W 123°06'0 0.0
2014-Oct-23 14:25N 49°17' W 123°06'0 0.0
2014-Oct-23 13:33N 49°17' W 123°06'0 0.0
2014-Oct-23 12:33N 49°17' W 123°06'0 0.0
2014-Oct-23 11:34N 49°17' W 123°06'0 0.0
2014-Oct-23 10:33N 49°17' W 123°06'0 0.0
2014-Oct-23 09:34N 49°17' W 123°06'0 0.0
2014-Oct-23 08:34N 49°17' W 123°06'0 0.0
2014-Oct-23 07:20N 49°17' W 123°06'0 0.0
2014-Oct-23 06:34N 49°17' W 123°06'0 0.0
2014-Oct-23 05:34N 49°17' W 123°06'0 0.0
2014-Oct-23 04:21N 49°17' W 123°06'0 0.0
2014-Oct-23 03:23N 49°17' W 123°06'0 0.0
2014-Oct-23 02:34N 49°17' W 123°06'0 0.0
2014-Oct-23 01:33N 49°17' W 123°06'0 0.0
2014-Oct-23 00:31N 49°17' W 123°06'0 0.0
2014-Oct-22 23:31N 49°17' W 123°06'0 0.0
2014-Oct-22 22:34N 49°17' W 123°06'0 0.0
2014-Oct-22 21:33N 49°17' W 123°06'0 0.4
2014-Oct-22 20:34N 49°17' W 123°07'7 7.0
2014-Oct-22 19:33N 49°19' W 122°56'7 7.2
2014-Oct-22 18:33N 49°17' W 123°07'0 0.4
2014-Oct-22 17:33N 49°17' W 123°06'0 0.0
2014-Oct-22 16:28N 49°17' W 123°06'0 0.0
2014-Oct-22 15:33N 49°17' W 123°06'0 0.0
2014-Oct-22 14:33N 49°17' W 123°06'0 0.0
2014-Oct-22 13:33N 49°17' W 123°06'0 0.0
2014-Oct-22 12:32N 49°17' W 123°06'0 0.0
2014-Oct-22 11:32N 49°17' W 123°06'0 0.0
2014-Oct-22 10:33N 49°17' W 123°06'0 0.0
2014-Oct-22 09:33N 49°17' W 123°06'0 0.0
2014-Oct-22 08:33N 49°17' W 123°06'0 0.0
2014-Oct-22 07:24N 49°17' W 123°06'0 0.0
2014-Oct-22 06:33N 49°17' W 123°06'0 0.0
2014-Oct-22 05:33N 49°17' W 123°06'0 0.0
2014-Oct-22 04:33N 49°17' W 123°06'0 0.0
2014-Oct-22 03:33N 49°17' W 123°06'0 0.0
2014-Oct-22 02:33N 49°17' W 123°06'0 0.0
2014-Oct-22 01:33N 49°17' W 123°06'0 0.0
2014-Oct-22 00:26N 49°17' W 123°06'1 1.5
2014-Oct-21 23:34N 49°18' W 123°07'1 1.3
2014-Oct-21 22:34N 49°17' W 123°06'1 1.3
2014-Oct-21 21:34N 49°17' W 123°04'1 1.1
2014-Oct-21 20:34N 49°18' W 123°06'0 0.4
2014-Oct-21 19:28N 49°17' W 123°06'2 2.4
2014-Oct-21 18:34N 49°19' W 123°08'2 2.0
2014-Oct-21 17:33N 49°17' W 123°07'0 0.0
2014-Oct-21 16:33N 49°17' W 123°07'0 0.4
2014-Oct-21 15:30N 49°17' W 123°06'0 0.0
2014-Oct-21 14:32N 49°17' W 123°06'0 0.0
2014-Oct-21 13:33N 49°17' W 123°06'0 0.0
2014-Oct-21 12:33N 49°17' W 123°06'  
Track history (hours):
 
Tides and Currents Weather Stations Pressure Air Temp Water Temp Dewpoint Dewpoint Depression Visibility Wind Speed Wind Dir Waves Ship Positions

Takaya

Last reported at 2014-Oct-31 12:33 UTC. Time now 2014-Oct-31 13:01 UTC.
Position N 49°17' W 123°06'.

; draft 1.4 m.

Type: Port tender. MMSI: 316014014.

Date/timePositionNaut miles runAvg speedWind from/ knotsBaromVisibWave heightAir tempDewpointWater temp
2014-Oct-31 12:33N 49°17' W 123°06'0 0.0
2014-Oct-31 11:29N 49°17' W 123°06'0 0.0
2014-Oct-31 10:33N 49°17' W 123°06'0 0.0
2014-Oct-31 09:33N 49°17' W 123°06'0 0.0
2014-Oct-31 08:33N 49°17' W 123°06'0 0.0
2014-Oct-31 07:32N 49°17' W 123°06'0 0.0
2014-Oct-31 06:31N 49°17' W 123°06'0 0.0
2014-Oct-31 05:33N 49°17' W 123°06'0 0.0
2014-Oct-31 04:23N 49°17' W 123°06'0 0.0
2014-Oct-31 03:29N 49°17' W 123°06'0 0.0
2014-Oct-31 02:33N 49°17' W 123°06'0 0.0
2014-Oct-31 01:32N 49°17' W 123°06'0 0.0
2014-Oct-31 00:33N 49°17' W 123°06'0 0.0
2014-Oct-30 23:32N 49°17' W 123°06'0 0.0
2014-Oct-30 22:32N 49°17' W 123°06'0 0.0
2014-Oct-30 21:33N 49°17' W 123°06'0 0.0
2014-Oct-30 20:33N 49°17' W 123°06'0 0.0
2014-Oct-30 19:23N 49°17' W 123°06'0 0.0
2014-Oct-30 18:33N 49°17' W 123°06'0 0.0
2014-Oct-30 17:33N 49°17' W 123°06'0 0.0
2014-Oct-30 16:33N 49°17' W 123°06'0 0.0
2014-Oct-30 15:29N 49°17' W 123°06'0 0.0
2014-Oct-30 14:28N 49°17' W 123°06'0 0.0
2014-Oct-30 13:33N 49°17' W 123°06'0 0.0
2014-Oct-30 12:33N 49°17' W 123°06'0 0.0
2014-Oct-30 11:27N 49°17' W 123°06'0 0.0
2014-Oct-30 10:32N 49°17' W 123°06'0 0.0
2014-Oct-30 09:33N 49°17' W 123°06'0 0.0
2014-Oct-30 08:33N 49°17' W 123°06'0 0.0
2014-Oct-30 07:33N 49°17' W 123°06'0 0.0
2014-Oct-30 06:30N 49°17' W 123°06'0 0.0
2014-Oct-30 05:33N 49°17' W 123°06'0 0.0
2014-Oct-30 04:27N 49°17' W 123°06'0 0.0
2014-Oct-30 03:33N 49°17' W 123°06'0 0.0
2014-Oct-30 02:33N 49°17' W 123°06'0 0.0
2014-Oct-30 01:33N 49°17' W 123°06'0 0.0
2014-Oct-30 00:33N 49°17' W 123°06'1 1.0
2014-Oct-29 23:33N 49°18' W 123°06'1 1.0
2014-Oct-29 22:33N 49°17' W 123°07'4 4.1
2014-Oct-29 21:33N 49°18' W 123°00'4 4.1
2014-Oct-29 20:33N 49°17' W 123°07'0 0.0
2014-Oct-29 19:34N 49°17' W 123°07'0 0.4
2014-Oct-29 18:33N 49°17' W 123°06'0 0.0
2014-Oct-29 17:34N 49°17' W 123°06'0 0.0
2014-Oct-29 16:33N 49°17' W 123°06'0 0.0
2014-Oct-29 15:33N 49°17' W 123°06'0 0.0
2014-Oct-29 14:31N 49°17' W 123°06'0 0.0
2014-Oct-29 13:34N 49°17' W 123°06'0 0.0
2014-Oct-29 12:33N 49°17' W 123°06'0 0.0
2014-Oct-29 11:32N 49°17' W 123°06'0 0.0
2014-Oct-29 10:34N 49°17' W 123°06'0 0.0
2014-Oct-29 09:34N 49°17' W 123°06'0 0.0
2014-Oct-29 08:33N 49°17' W 123°06'0 0.0
2014-Oct-29 07:33N 49°17' W 123°06'0 0.0
2014-Oct-29 06:34N 49°17' W 123°06'0 0.0
2014-Oct-29 05:33N 49°17' W 123°06'0 0.0
2014-Oct-29 04:33N 49°17' W 123°06'0 0.0
2014-Oct-29 03:33N 49°17' W 123°06'0 0.0
2014-Oct-29 02:34N 49°17' W 123°06'0 0.0
2014-Oct-29 01:33N 49°17' W 123°06'0 0.0
2014-Oct-29 00:34N 49°17' W 123°06'2 2.3
2014-Oct-28 23:34N 49°19' W 123°08'2 2.3
2014-Oct-28 22:33N 49°17' W 123°06'3 2.9
2014-Oct-28 21:33N 49°18' W 123°02'3 3.0
2014-Oct-28 20:33N 49°17' W 123°06'0 0.1
2014-Oct-28 19:33N 49°17' W 123°06'0 0.0
2014-Oct-28 18:32N 49°17' W 123°06'0 0.0
2014-Oct-28 17:33N 49°17' W 123°06'0 0.0
2014-Oct-28 16:33N 49°17' W 123°06'0 0.0
2014-Oct-28 15:29N 49°17' W 123°06'0 0.0
2014-Oct-28 14:31N 49°17' W 123°06'0 0.0
2014-Oct-28 13:34N 49°17' W 123°06'0 0.0
2014-Oct-28 12:33N 49°17' W 123°06'0 0.0
2014-Oct-28 11:33N 49°17' W 123°06'0 0.0
2014-Oct-28 10:33N 49°17' W 123°06'0 0.0
2014-Oct-28 09:33N 49°17' W 123°06'0 0.0
2014-Oct-28 08:33N 49°17' W 123°06'0 0.0
2014-Oct-28 07:31N 49°17' W 123°06'0 0.0
2014-Oct-28 06:34N 49°17' W 123°06'0 0.0
2014-Oct-28 05:34N 49°17' W 123°06'0 0.0
2014-Oct-28 04:33N 49°17' W 123°06'0 0.0
2014-Oct-28 03:29N 49°17' W 123°06'0 0.0
2014-Oct-28 02:34N 49°17' W 123°06'0 0.0
2014-Oct-28 01:33N 49°17' W 123°06'0 0.0
2014-Oct-28 00:34N 49°17' W 123°06'0 0.0
2014-Oct-27 23:33N 49°17' W 123°06'0 0.0
2014-Oct-27 22:33N 49°17' W 123°06'0 0.0
2014-Oct-27 21:33N 49°17' W 123°06'0 0.0
2014-Oct-27 20:34N 49°17' W 123°06'0 0.0
2014-Oct-27 19:27N 49°17' W 123°06'0 0.0
2014-Oct-27 18:33N 49°17' W 123°06'0 0.0
2014-Oct-27 17:34N 49°17' W 123°06'0 0.0
2014-Oct-27 16:34N 49°17' W 123°06'0 0.0
2014-Oct-27 15:33N 49°17' W 123°06'0 0.1
2014-Oct-27 14:33N 49°17' W 123°06'0 0.0
2014-Oct-27 13:33N 49°17' W 123°06'0 0.0
2014-Oct-27 12:33N 49°17' W 123°06'0 0.0
2014-Oct-27 11:33N 49°17' W 123°06'0 0.0
2014-Oct-27 10:32N 49°17' W 123°06'0 0.0
2014-Oct-27 09:34N 49°17' W 123°06'0 0.0
2014-Oct-27 08:32N 49°17' W 123°06'0 0.0
2014-Oct-27 07:33N 49°17' W 123°06'0 0.0
2014-Oct-27 06:34N 49°17' W 123°06'0 0.1
2014-Oct-27 05:33N 49°17' W 123°06'0 0.0
2014-Oct-27 04:28N 49°17' W 123°06'0 0.0
2014-Oct-27 03:33N 49°17' W 123°06'0 0.0
2014-Oct-27 02:33N 49°17' W 123°06'0 0.0
2014-Oct-27 01:32N 49°17' W 123°06'0 0.0
2014-Oct-27 00:33N 49°17' W 123°06'0 0.0
2014-Oct-26 23:33N 49°17' W 123°06'0 0.0
2014-Oct-26 22:33N 49°17' W 123°06'1 1.2
2014-Oct-26 21:33N 49°17' W 123°04'7 6.8
2014-Oct-26 20:33N 49°18' W 122°54'3 2.5
2014-Oct-26 19:33N 49°18' W 122°58'3 3.3
2014-Oct-26 18:33N 49°18' W 123°03'2 2.2
2014-Oct-26 17:33N 49°17' W 123°06'1 0.9
2014-Oct-26 16:34N 49°18' W 123°07'2 2.2
2014-Oct-26 15:33N 49°17' W 123°09'2 1.8
2014-Oct-26 14:33N 49°18' W 123°07'1 0.9
2014-Oct-26 13:33N 49°17' W 123°06'0 0.0
2014-Oct-26 12:33N 49°17' W 123°06'0 0.0
2014-Oct-26 11:33N 49°17' W 123°06'0 0.0
2014-Oct-26 10:33N 49°17' W 123°06'0 0.0
2014-Oct-26 09:33N 49°17' W 123°06'0 0.0
2014-Oct-26 08:33N 49°17' W 123°06'0 0.0
2014-Oct-26 07:33N 49°17' W 123°06'0 0.0
2014-Oct-26 06:33N 49°17' W 123°06'0 0.0
2014-Oct-26 05:33N 49°17' W 123°06'0 0.0
2014-Oct-26 04:31N 49°17' W 123°06'0 0.0
2014-Oct-26 03:33N 49°17' W 123°06'0 0.0
2014-Oct-26 02:33N 49°17' W 123°06'0 0.0
2014-Oct-26 01:33N 49°17' W 123°06'0 0.0
2014-Oct-26 00:33N 49°17' W 123°06'0 0.0
2014-Oct-25 23:33N 49°17' W 123°06'0 0.0
2014-Oct-25 22:33N 49°17' W 123°06'0 0.0
2014-Oct-25 21:33N 49°17' W 123°06'0 0.0
2014-Oct-25 20:33N 49°17' W 123°06'0 0.0
2014-Oct-25 19:12N 49°17' W 123°06'0 0.0
2014-Oct-25 18:33N 49°17' W 123°06'0 0.0
2014-Oct-25 17:33N 49°17' W 123°06'0 0.0
2014-Oct-25 16:19N 49°17' W 123°06'0 0.0
2014-Oct-25 15:32N 49°17' W 123°06'0 0.0
2014-Oct-25 14:33N 49°17' W 123°06'0 0.0
2014-Oct-25 13:33N 49°17' W 123°06'0 0.0
2014-Oct-25 12:33N 49°17' W 123°06'0 0.0
2014-Oct-25 11:32N 49°17' W 123°06'0 0.0
2014-Oct-25 10:33N 49°17' W 123°06'0 0.0
2014-Oct-25 09:33N 49°17' W 123°06'0 0.0
2014-Oct-25 08:33N 49°17' W 123°06'0 0.0
2014-Oct-25 07:32N 49°17' W 123°06'0 0.0
2014-Oct-25 06:33N 49°17' W 123°06'0 0.0
2014-Oct-25 05:33N 49°17' W 123°06'0 0.0
2014-Oct-25 04:33N 49°17' W 123°06'0 0.0
2014-Oct-25 03:33N 49°17' W 123°06'0 0.0
2014-Oct-25 02:32N 49°17' W 123°06'0 0.0
2014-Oct-25 01:33N 49°17' W 123°06'0 0.0
2014-Oct-25 00:33N 49°17' W 123°06'8 8.1
2014-Oct-24 23:34N 49°18' W 122°54'7 6.8
2014-Oct-24 22:33N 49°17' W 123°04'1 1.3
2014-Oct-24 21:33N 49°17' W 123°06'0 0.0
2014-Oct-24 20:33N 49°17' W 123°06'3 2.7
2014-Oct-24 19:33N 49°18' W 123°02'9 9.1
2014-Oct-24 18:33N 49°17' W 123°16'3 2.8
2014-Oct-24 17:33N 49°20' W 123°14'5 5.4
2014-Oct-24 16:33N 49°18' W 123°06'1 0.5
2014-Oct-24 15:33N 49°17' W 123°07'0 0.4
2014-Oct-24 14:33N 49°17' W 123°06'0 0.0
2014-Oct-24 13:25N 49°17' W 123°06'0 0.0
2014-Oct-24 12:34N 49°17' W 123°06'0 0.0
2014-Oct-24 11:33N 49°17' W 123°06'0 0.0
2014-Oct-24 10:34N 49°17' W 123°06'0 0.0
2014-Oct-24 09:33N 49°17' W 123°06'0 0.0
2014-Oct-24 08:34N 49°17' W 123°06'0 0.0
2014-Oct-24 07:32N 49°17' W 123°06'0 0.0
2014-Oct-24 06:33N 49°17' W 123°06'0 0.0
2014-Oct-24 05:33N 49°17' W 123°06'0 0.0
2014-Oct-24 04:16N 49°17' W 123°06'0 0.1
2014-Oct-24 03:34N 49°17' W 123°06'0 0.0
2014-Oct-24 02:33N 49°17' W 123°06'0 0.0
2014-Oct-24 01:33N 49°17' W 123°06'0 0.0
2014-Oct-24 00:32N 49°17' W 123°06'0 0.0
2014-Oct-23 23:34N 49°17' W 123°06'0 0.0
2014-Oct-23 22:33N 49°17' W 123°06'0 0.0
2014-Oct-23 21:33N 49°17' W 123°06'0 0.0
2014-Oct-23 20:33N 49°17' W 123°06'5 4.7
2014-Oct-23 19:33N 49°18' W 122°59'5 4.6
2014-Oct-23 18:32N 49°17' W 123°06'0 0.0
2014-Oct-23 17:34N 49°17' W 123°06'0 0.0
2014-Oct-23 15:33N 49°17' W 123°06'0 0.0
2014-Oct-23 14:25N 49°17' W 123°06'0 0.0
2014-Oct-23 13:33N 49°17' W 123°06'0 0.0
2014-Oct-23 12:33N 49°17' W 123°06'0 0.0
2014-Oct-23 11:34N 49°17' W 123°06'0 0.0
2014-Oct-23 10:33N 49°17' W 123°06'0 0.0
2014-Oct-23 09:34N 49°17' W 123°06'0 0.0
2014-Oct-23 08:34N 49°17' W 123°06'0 0.0
2014-Oct-23 07:20N 49°17' W 123°06'0 0.0
2014-Oct-23 06:34N 49°17' W 123°06'0 0.0
2014-Oct-23 05:34N 49°17' W 123°06'0 0.0
2014-Oct-23 04:21N 49°17' W 123°06'0 0.0
2014-Oct-23 03:23N 49°17' W 123°06'0 0.0
2014-Oct-23 02:34N 49°17' W 123°06'0 0.0
2014-Oct-23 01:33N 49°17' W 123°06'0 0.0
2014-Oct-23 00:31N 49°17' W 123°06'0 0.0
2014-Oct-22 23:31N 49°17' W 123°06'0 0.0
2014-Oct-22 22:34N 49°17' W 123°06'0 0.0
2014-Oct-22 21:33N 49°17' W 123°06'0 0.4
2014-Oct-22 20:34N 49°17' W 123°07'7 7.0
2014-Oct-22 19:33N 49°19' W 122°56'7 7.2
2014-Oct-22 18:33N 49°17' W 123°07'0 0.4
2014-Oct-22 17:33N 49°17' W 123°06'0 0.0
2014-Oct-22 16:28N 49°17' W 123°06'0 0.0
2014-Oct-22 15:33N 49°17' W 123°06'0 0.0
2014-Oct-22 14:33N 49°17' W 123°06'0 0.0
2014-Oct-22 13:33N 49°17' W 123°06'0 0.0
2014-Oct-22 12:32N 49°17' W 123°06'0 0.0
2014-Oct-22 11:32N 49°17' W 123°06'0 0.0
2014-Oct-22 10:33N 49°17' W 123°06'0 0.0
2014-Oct-22 09:33N 49°17' W 123°06'0 0.0
2014-Oct-22 08:33N 49°17' W 123°06'0 0.0
2014-Oct-22 07:24N 49°17' W 123°06'0 0.0
2014-Oct-22 06:33N 49°17' W 123°06'0 0.0
2014-Oct-22 05:33N 49°17' W 123°06'0 0.0
2014-Oct-22 04:33N 49°17' W 123°06'0 0.0
2014-Oct-22 03:33N 49°17' W 123°06'0 0.0
2014-Oct-22 02:33N 49°17' W 123°06'0 0.0
2014-Oct-22 01:33N 49°17' W 123°06'0 0.0
2014-Oct-22 00:26N 49°17' W 123°06'1 1.5
2014-Oct-21 23:34N 49°18' W 123°07'1 1.3
2014-Oct-21 22:34N 49°17' W 123°06'1 1.3
2014-Oct-21 21:34N 49°17' W 123°04'1 1.1
2014-Oct-21 20:34N 49°18' W 123°06'0 0.4
2014-Oct-21 19:28N 49°17' W 123°06'2 2.4
2014-Oct-21 18:34N 49°19' W 123°08'2 2.0
2014-Oct-21 17:33N 49°17' W 123°07'0 0.0
2014-Oct-21 16:33N 49°17' W 123°07'0 0.4
2014-Oct-21 15:30N 49°17' W 123°06'0 0.0
2014-Oct-21 14:32N 49°17' W 123°06'0 0.0
2014-Oct-21 13:33N 49°17' W 123°06'0 0.0
2014-Oct-21 12:33N 49°17' W 123°06'  

Dump ship's entire track history